sensor_id;sensor_type;location;lat;lon;timestamp;P1;durP1;ratioP1;P2;durP2;ratioP2
27003;SDS011;14546;47.590;19.022;2024-02-23T00:00:50;3.22;;;2.30;;
27003;SDS011;14546;47.590;19.022;2024-02-23T00:03:16;3.90;;;2.38;;
27003;SDS011;14546;47.590;19.022;2024-02-23T00:05:42;4.20;;;2.50;;
27003;SDS011;14546;47.590;19.022;2024-02-23T00:08:08;3.25;;;2.38;;
27003;SDS011;14546;47.590;19.022;2024-02-23T00:10:34;3.83;;;2.50;;
27003;SDS011;14546;47.590;19.022;2024-02-23T00:13:01;4.30;;;2.45;;
27003;SDS011;14546;47.590;19.022;2024-02-23T00:15:27;3.53;;;2.55;;
27003;SDS011;14546;47.590;19.022;2024-02-23T00:17:53;6.03;;;2.83;;
27003;SDS011;14546;47.590;19.022;2024-02-23T00:20:19;4.68;;;2.85;;
27003;SDS011;14546;47.590;19.022;2024-02-23T00:22:45;5.75;;;2.53;;
27003;SDS011;14546;47.590;19.022;2024-02-23T00:25:11;4.13;;;2.55;;
27003;SDS011;14546;47.590;19.022;2024-02-23T00:27:37;4.18;;;2.60;;
27003;SDS011;14546;47.590;19.022;2024-02-23T00:30:06;5.65;;;2.67;;
27003;SDS011;14546;47.590;19.022;2024-02-23T00:32:33;4.13;;;2.28;;
27003;SDS011;14546;47.590;19.022;2024-02-23T00:34:58;5.10;;;2.50;;
27003;SDS011;14546;47.590;19.022;2024-02-23T00:37:24;4.72;;;2.55;;
27003;SDS011;14546;47.590;19.022;2024-02-23T00:39:50;2.90;;;2.30;;
27003;SDS011;14546;47.590;19.022;2024-02-23T00:42:17;8.52;;;2.42;;
27003;SDS011;14546;47.590;19.022;2024-02-23T00:44:43;7.43;;;3.28;;
27003;SDS011;14546;47.590;19.022;2024-02-23T00:47:09;5.82;;;2.75;;
27003;SDS011;14546;47.590;19.022;2024-02-23T00:49:35;4.03;;;2.58;;
27003;SDS011;14546;47.590;19.022;2024-02-23T00:52:01;3.50;;;2.35;;
27003;SDS011;14546;47.590;19.022;2024-02-23T00:54:27;6.45;;;2.78;;
27003;SDS011;14546;47.590;19.022;2024-02-23T00:56:53;3.53;;;2.60;;
27003;SDS011;14546;47.590;19.022;2024-02-23T00:59:19;5.63;;;2.65;;
27003;SDS011;14546;47.590;19.022;2024-02-23T01:01:46;4.63;;;2.88;;
27003;SDS011;14546;47.590;19.022;2024-02-23T01:04:12;4.20;;;2.60;;
27003;SDS011;14546;47.590;19.022;2024-02-23T01:06:38;6.10;;;2.88;;
27003;SDS011;14546;47.590;19.022;2024-02-23T01:09:04;4.80;;;2.92;;
27003;SDS011;14546;47.590;19.022;2024-02-23T01:11:30;3.67;;;2.45;;
27003;SDS011;14546;47.590;19.022;2024-02-23T01:13:56;5.35;;;2.85;;
27003;SDS011;14546;47.590;19.022;2024-02-23T01:16:22;5.85;;;2.88;;
27003;SDS011;14546;47.590;19.022;2024-02-23T01:18:48;3.63;;;2.65;;
27003;SDS011;14546;47.590;19.022;2024-02-23T01:21:14;3.85;;;2.28;;
27003;SDS011;14546;47.590;19.022;2024-02-23T01:23:40;7.65;;;2.95;;
27003;SDS011;14546;47.590;19.022;2024-02-23T01:26:06;5.85;;;2.83;;
27003;SDS011;14546;47.590;19.022;2024-02-23T01:28:32;5.45;;;2.90;;
27003;SDS011;14546;47.590;19.022;2024-02-23T01:30:58;7.32;;;3.40;;
27003;SDS011;14546;47.590;19.022;2024-02-23T01:33:24;6.57;;;2.85;;
27003;SDS011;14546;47.590;19.022;2024-02-23T01:35:50;6.18;;;3.00;;
27003;SDS011;14546;47.590;19.022;2024-02-23T01:38:16;4.45;;;3.15;;
27003;SDS011;14546;47.590;19.022;2024-02-23T01:40:46;4.25;;;2.83;;
27003;SDS011;14546;47.590;19.022;2024-02-23T01:43:15;5.25;;;3.17;;
27003;SDS011;14546;47.590;19.022;2024-02-23T01:45:41;5.55;;;3.25;;
27003;SDS011;14546;47.590;19.022;2024-02-23T01:48:07;4.57;;;2.85;;
27003;SDS011;14546;47.590;19.022;2024-02-23T01:50:33;5.07;;;3.15;;
27003;SDS011;14546;47.590;19.022;2024-02-23T01:53:00;6.05;;;3.28;;
27003;SDS011;14546;47.590;19.022;2024-02-23T01:55:28;9.60;;;3.58;;
27003;SDS011;14546;47.590;19.022;2024-02-23T01:57:54;6.40;;;3.30;;
27003;SDS011;14546;47.590;19.022;2024-02-23T02:00:20;5.35;;;3.33;;
27003;SDS011;14546;47.590;19.022;2024-02-23T02:02:47;5.88;;;3.38;;
27003;SDS011;14546;47.590;19.022;2024-02-23T02:05:14;8.55;;;3.80;;
27003;SDS011;14546;47.590;19.022;2024-02-23T02:07:43;4.78;;;3.25;;
27003;SDS011;14546;47.590;19.022;2024-02-23T02:10:09;3.97;;;2.42;;
27003;SDS011;14546;47.590;19.022;2024-02-23T02:12:35;6.00;;;3.00;;
27003;SDS011;14546;47.590;19.022;2024-02-23T02:15:01;7.30;;;3.58;;
27003;SDS011;14546;47.590;19.022;2024-02-23T02:17:28;5.53;;;3.00;;
27003;SDS011;14546;47.590;19.022;2024-02-23T02:19:54;3.47;;;2.15;;
27003;SDS011;14546;47.590;19.022;2024-02-23T02:22:20;5.38;;;3.55;;
27003;SDS011;14546;47.590;19.022;2024-02-23T02:24:46;5.50;;;3.15;;
27003;SDS011;14546;47.590;19.022;2024-02-23T02:27:13;4.65;;;3.15;;
27003;SDS011;14546;47.590;19.022;2024-02-23T02:29:39;4.28;;;2.80;;
27003;SDS011;14546;47.590;19.022;2024-02-23T02:32:06;8.18;;;3.47;;
27003;SDS011;14546;47.590;19.022;2024-02-23T02:34:32;4.95;;;3.22;;
27003;SDS011;14546;47.590;19.022;2024-02-23T02:36:58;7.45;;;3.38;;
27003;SDS011;14546;47.590;19.022;2024-02-23T02:39:24;7.20;;;3.40;;
27003;SDS011;14546;47.590;19.022;2024-02-23T02:41:50;4.97;;;3.30;;
27003;SDS011;14546;47.590;19.022;2024-02-23T02:44:16;7.20;;;3.53;;
27003;SDS011;14546;47.590;19.022;2024-02-23T02:46:42;7.25;;;3.33;;
27003;SDS011;14546;47.590;19.022;2024-02-23T02:49:08;5.80;;;3.47;;
27003;SDS011;14546;47.590;19.022;2024-02-23T02:51:34;8.27;;;3.42;;
27003;SDS011;14546;47.590;19.022;2024-02-23T02:54:00;6.22;;;3.35;;
27003;SDS011;14546;47.590;19.022;2024-02-23T02:56:26;7.40;;;3.65;;
27003;SDS011;14546;47.590;19.022;2024-02-23T02:58:52;7.03;;;3.30;;
27003;SDS011;14546;47.590;19.022;2024-02-23T03:01:18;8.57;;;3.90;;
27003;SDS011;14546;47.590;19.022;2024-02-23T03:03:44;5.40;;;3.55;;
27003;SDS011;14546;47.590;19.022;2024-02-23T03:06:10;4.82;;;3.47;;
27003;SDS011;14546;47.590;19.022;2024-02-23T03:08:36;7.47;;;4.05;;
27003;SDS011;14546;47.590;19.022;2024-02-23T03:11:02;5.22;;;3.05;;
27003;SDS011;14546;47.590;19.022;2024-02-23T03:13:28;6.93;;;4.10;;
27003;SDS011;14546;47.590;19.022;2024-02-23T03:15:56;10.73;;;4.53;;
27003;SDS011;14546;47.590;19.022;2024-02-23T03:18:22;6.18;;;4.07;;
27003;SDS011;14546;47.590;19.022;2024-02-23T03:20:48;10.38;;;4.75;;
27003;SDS011;14546;47.590;19.022;2024-02-23T03:23:14;8.63;;;4.43;;
27003;SDS011;14546;47.590;19.022;2024-02-23T03:25:40;6.95;;;4.20;;
27003;SDS011;14546;47.590;19.022;2024-02-23T03:28:05;7.93;;;4.10;;
27003;SDS011;14546;47.590;19.022;2024-02-23T03:30:31;5.32;;;3.70;;
27003;SDS011;14546;47.590;19.022;2024-02-23T03:32:57;8.80;;;4.13;;
27003;SDS011;14546;47.590;19.022;2024-02-23T03:35:22;5.35;;;3.90;;
27003;SDS011;14546;47.590;19.022;2024-02-23T03:37:48;10.98;;;4.00;;
27003;SDS011;14546;47.590;19.022;2024-02-23T03:40:14;9.35;;;4.72;;
27003;SDS011;14546;47.590;19.022;2024-02-23T03:42:39;11.13;;;5.03;;
27003;SDS011;14546;47.590;19.022;2024-02-23T03:45:05;15.40;;;5.90;;
27003;SDS011;14546;47.590;19.022;2024-02-23T03:47:31;6.50;;;4.28;;
27003;SDS011;14546;47.590;19.022;2024-02-23T03:49:56;8.13;;;4.85;;
27003;SDS011;14546;47.590;19.022;2024-02-23T03:52:22;8.45;;;4.90;;
27003;SDS011;14546;47.590;19.022;2024-02-23T03:54:47;6.90;;;4.60;;
27003;SDS011;14546;47.590;19.022;2024-02-23T03:57:14;7.00;;;4.40;;
27003;SDS011;14546;47.590;19.022;2024-02-23T03:59:40;9.13;;;4.47;;
27003;SDS011;14546;47.590;19.022;2024-02-23T04:02:15;9.63;;;4.85;;
27003;SDS011;14546;47.590;19.022;2024-02-23T04:04:41;8.25;;;5.05;;
27003;SDS011;14546;47.590;19.022;2024-02-23T04:07:07;8.13;;;4.88;;
27003;SDS011;14546;47.590;19.022;2024-02-23T04:09:32;6.63;;;5.38;;
27003;SDS011;14546;47.590;19.022;2024-02-23T04:11:58;8.95;;;4.82;;
27003;SDS011;14546;47.590;19.022;2024-02-23T04:14:24;6.78;;;4.75;;
27003;SDS011;14546;47.590;19.022;2024-02-23T04:16:49;8.98;;;5.15;;
27003;SDS011;14546;47.590;19.022;2024-02-23T04:19:15;8.30;;;4.70;;
27003;SDS011;14546;47.590;19.022;2024-02-23T04:21:40;8.13;;;4.95;;
27003;SDS011;14546;47.590;19.022;2024-02-23T04:24:06;9.48;;;4.47;;
27003;SDS011;14546;47.590;19.022;2024-02-23T04:26:33;8.57;;;4.28;;
27003;SDS011;14546;47.590;19.022;2024-02-23T04:28:59;5.32;;;3.70;;
27003;SDS011;14546;47.590;19.022;2024-02-23T04:31:24;8.52;;;4.40;;
27003;SDS011;14546;47.590;19.022;2024-02-23T04:33:50;5.40;;;4.00;;
27003;SDS011;14546;47.590;19.022;2024-02-23T04:36:18;10.10;;;4.65;;
27003;SDS011;14546;47.590;19.022;2024-02-23T04:38:45;8.10;;;4.30;;
27003;SDS011;14546;47.590;19.022;2024-02-23T04:41:11;6.68;;;4.40;;
27003;SDS011;14546;47.590;19.022;2024-02-23T04:43:36;8.27;;;4.35;;
27003;SDS011;14546;47.590;19.022;2024-02-23T04:46:02;7.18;;;4.22;;
27003;SDS011;14546;47.590;19.022;2024-02-23T04:48:28;7.68;;;3.72;;
27003;SDS011;14546;47.590;19.022;2024-02-23T04:50:56;6.82;;;3.97;;
27003;SDS011;14546;47.590;19.022;2024-02-23T04:53:22;9.43;;;4.20;;
27003;SDS011;14546;47.590;19.022;2024-02-23T04:55:47;6.07;;;4.35;;
27003;SDS011;14546;47.590;19.022;2024-02-23T04:58:13;5.10;;;3.15;;
27003;SDS011;14546;47.590;19.022;2024-02-23T05:00:39;4.13;;;2.83;;
27003;SDS011;14546;47.590;19.022;2024-02-23T05:03:05;4.75;;;2.75;;
27003;SDS011;14546;47.590;19.022;2024-02-23T05:05:31;6.38;;;3.45;;
27003;SDS011;14546;47.590;19.022;2024-02-23T05:07:57;4.82;;;2.95;;
27003;SDS011;14546;47.590;19.022;2024-02-23T05:10:24;3.35;;;2.88;;
27003;SDS011;14546;47.590;19.022;2024-02-23T05:12:50;5.57;;;3.33;;
27003;SDS011;14546;47.590;19.022;2024-02-23T05:15:15;5.47;;;2.97;;
27003;SDS011;14546;47.590;19.022;2024-02-23T05:17:41;8.85;;;3.92;;
27003;SDS011;14546;47.590;19.022;2024-02-23T05:20:07;4.20;;;3.10;;
27003;SDS011;14546;47.590;19.022;2024-02-23T05:22:35;2.95;;;2.22;;
27003;SDS011;14546;47.590;19.022;2024-02-23T05:25:01;5.00;;;3.15;;
27003;SDS011;14546;47.590;19.022;2024-02-23T05:27:29;4.75;;;3.33;;
27003;SDS011;14546;47.590;19.022;2024-02-23T05:29:55;11.32;;;3.05;;
27003;SDS011;14546;47.590;19.022;2024-02-23T05:32:21;4.28;;;2.83;;
27003;SDS011;14546;47.590;19.022;2024-02-23T05:34:46;9.13;;;5.05;;
27003;SDS011;14546;47.590;19.022;2024-02-23T05:37:16;6.20;;;3.53;;
27003;SDS011;14546;47.590;19.022;2024-02-23T05:39:42;8.00;;;4.13;;
27003;SDS011;14546;47.590;19.022;2024-02-23T05:42:09;7.45;;;3.20;;
27003;SDS011;14546;47.590;19.022;2024-02-23T05:44:35;6.13;;;3.60;;
27003;SDS011;14546;47.590;19.022;2024-02-23T05:47:01;4.97;;;2.80;;
27003;SDS011;14546;47.590;19.022;2024-02-23T05:49:27;7.07;;;3.05;;
27003;SDS011;14546;47.590;19.022;2024-02-23T05:51:52;5.15;;;2.80;;
27003;SDS011;14546;47.590;19.022;2024-02-23T05:54:19;5.10;;;3.03;;
27003;SDS011;14546;47.590;19.022;2024-02-23T05:56:45;3.97;;;2.92;;
27003;SDS011;14546;47.590;19.022;2024-02-23T05:59:11;5.40;;;2.53;;
27003;SDS011;14546;47.590;19.022;2024-02-23T06:01:37;5.60;;;2.75;;
27003;SDS011;14546;47.590;19.022;2024-02-23T06:04:03;4.93;;;2.67;;
27003;SDS011;14546;47.590;19.022;2024-02-23T06:06:30;2.90;;;2.03;;
27003;SDS011;14546;47.590;19.022;2024-02-23T06:08:56;3.42;;;2.38;;
27003;SDS011;14546;47.590;19.022;2024-02-23T06:11:22;5.72;;;2.50;;
27003;SDS011;14546;47.590;19.022;2024-02-23T06:13:48;4.28;;;1.83;;
27003;SDS011;14546;47.590;19.022;2024-02-23T06:16:15;2.50;;;1.92;;
27003;SDS011;14546;47.590;19.022;2024-02-23T06:18:41;3.58;;;2.20;;
27003;SDS011;14546;47.590;19.022;2024-02-23T06:21:15;2.60;;;1.67;;
27003;SDS011;14546;47.590;19.022;2024-02-23T06:23:45;1.92;;;1.60;;
27003;SDS011;14546;47.590;19.022;2024-02-23T06:26:11;2.53;;;1.60;;
27003;SDS011;14546;47.590;19.022;2024-02-23T06:28:37;4.75;;;2.13;;
27003;SDS011;14546;47.590;19.022;2024-02-23T06:31:06;1.80;;;1.60;;
27003;SDS011;14546;47.590;19.022;2024-02-23T06:33:32;2.70;;;1.77;;
27003;SDS011;14546;47.590;19.022;2024-02-23T06:35:57;7.13;;;1.90;;
27003;SDS011;14546;47.590;19.022;2024-02-23T06:38:23;5.85;;;2.30;;
27003;SDS011;14546;47.590;19.022;2024-02-23T06:40:51;4.13;;;2.28;;
27003;SDS011;14546;47.590;19.022;2024-02-23T06:43:16;3.53;;;2.50;;
27003;SDS011;14546;47.590;19.022;2024-02-23T06:45:43;5.13;;;2.95;;
27003;SDS011;14546;47.590;19.022;2024-02-23T06:48:09;6.20;;;3.00;;
27003;SDS011;14546;47.590;19.022;2024-02-23T06:50:35;6.97;;;3.10;;
27003;SDS011;14546;47.590;19.022;2024-02-23T06:53:00;9.80;;;3.20;;
27003;SDS011;14546;47.590;19.022;2024-02-23T06:55:27;4.70;;;3.08;;
27003;SDS011;14546;47.590;19.022;2024-02-23T06:57:53;6.40;;;3.75;;
27003;SDS011;14546;47.590;19.022;2024-02-23T07:00:20;5.57;;;3.28;;
27003;SDS011;14546;47.590;19.022;2024-02-23T07:02:46;8.50;;;3.58;;
27003;SDS011;14546;47.590;19.022;2024-02-23T07:05:12;5.22;;;3.30;;
27003;SDS011;14546;47.590;19.022;2024-02-23T07:07:39;5.95;;;3.83;;
27003;SDS011;14546;47.590;19.022;2024-02-23T07:10:05;6.10;;;3.90;;
27003;SDS011;14546;47.590;19.022;2024-02-23T07:12:31;6.93;;;4.35;;
27003;SDS011;14546;47.590;19.022;2024-02-23T07:14:57;6.47;;;4.40;;
27003;SDS011;14546;47.590;19.022;2024-02-23T07:17:23;5.80;;;3.97;;
27003;SDS011;14546;47.590;19.022;2024-02-23T07:19:48;6.07;;;4.32;;
27003;SDS011;14546;47.590;19.022;2024-02-23T07:22:15;7.30;;;4.50;;
27003;SDS011;14546;47.590;19.022;2024-02-23T07:24:43;7.35;;;4.68;;
27003;SDS011;14546;47.590;19.022;2024-02-23T07:27:09;8.15;;;4.55;;
27003;SDS011;14546;47.590;19.022;2024-02-23T07:29:35;7.10;;;4.18;;
27003;SDS011;14546;47.590;19.022;2024-02-23T07:32:01;6.70;;;4.60;;
27003;SDS011;14546;47.590;19.022;2024-02-23T07:34:27;6.75;;;3.65;;
27003;SDS011;14546;47.590;19.022;2024-02-23T07:36:53;10.05;;;4.47;;
27003;SDS011;14546;47.590;19.022;2024-02-23T07:39:19;6.30;;;4.35;;
27003;SDS011;14546;47.590;19.022;2024-02-23T07:41:45;7.13;;;4.88;;
27003;SDS011;14546;47.590;19.022;2024-02-23T07:44:11;11.57;;;4.28;;
27003;SDS011;14546;47.590;19.022;2024-02-23T07:46:37;7.65;;;4.40;;
27003;SDS011;14546;47.590;19.022;2024-02-23T07:49:03;6.63;;;4.10;;
27003;SDS011;14546;47.590;19.022;2024-02-23T07:51:29;7.97;;;5.05;;
27003;SDS011;14546;47.590;19.022;2024-02-23T07:53:55;7.28;;;5.10;;
27003;SDS011;14546;47.590;19.022;2024-02-23T07:56:20;6.97;;;5.45;;
27003;SDS011;14546;47.590;19.022;2024-02-23T07:58:46;7.20;;;4.57;;
27003;SDS011;14546;47.590;19.022;2024-02-23T08:01:12;8.02;;;4.95;;
27003;SDS011;14546;47.590;19.022;2024-02-23T08:03:40;10.82;;;4.80;;
27003;SDS011;14546;47.590;19.022;2024-02-23T08:06:06;9.27;;;4.68;;
27003;SDS011;14546;47.590;19.022;2024-02-23T08:08:32;6.55;;;4.88;;
27003;SDS011;14546;47.590;19.022;2024-02-23T08:11:03;5.60;;;3.92;;
27003;SDS011;14546;47.590;19.022;2024-02-23T08:13:28;8.18;;;3.90;;
27003;SDS011;14546;47.590;19.022;2024-02-23T08:15:54;5.38;;;3.78;;
27003;SDS011;14546;47.590;19.022;2024-02-23T08:18:20;7.35;;;3.67;;
27003;SDS011;14546;47.590;19.022;2024-02-23T08:20:47;10.30;;;4.68;;
27003;SDS011;14546;47.590;19.022;2024-02-23T08:23:13;4.63;;;3.30;;
27003;SDS011;14546;47.590;19.022;2024-02-23T08:25:39;4.53;;;2.13;;
27003;SDS011;14546;47.590;19.022;2024-02-23T08:28:04;5.30;;;3.17;;
27003;SDS011;14546;47.590;19.022;2024-02-23T08:30:31;5.80;;;3.20;;
27003;SDS011;14546;47.590;19.022;2024-02-23T08:32:57;6.55;;;2.42;;
27003;SDS011;14546;47.590;19.022;2024-02-23T08:35:22;4.68;;;3.00;;
27003;SDS011;14546;47.590;19.022;2024-02-23T08:37:48;5.10;;;2.53;;
27003;SDS011;14546;47.590;19.022;2024-02-23T08:40:14;6.80;;;2.88;;
27003;SDS011;14546;47.590;19.022;2024-02-23T08:42:40;6.88;;;3.40;;
27003;SDS011;14546;47.590;19.022;2024-02-23T08:45:05;5.53;;;2.83;;
27003;SDS011;14546;47.590;19.022;2024-02-23T08:47:31;4.10;;;2.42;;
27003;SDS011;14546;47.590;19.022;2024-02-23T08:49:59;5.57;;;3.17;;
27003;SDS011;14546;47.590;19.022;2024-02-23T08:52:25;4.47;;;2.40;;
27003;SDS011;14546;47.590;19.022;2024-02-23T08:54:51;6.45;;;2.92;;
27003;SDS011;14546;47.590;19.022;2024-02-23T08:57:16;4.47;;;2.13;;
27003;SDS011;14546;47.590;19.022;2024-02-23T08:59:44;4.10;;;2.03;;
27003;SDS011;14546;47.590;19.022;2024-02-23T09:02:13;6.32;;;2.00;;
27003;SDS011;14546;47.590;19.022;2024-02-23T09:04:39;4.90;;;2.00;;
27003;SDS011;14546;47.590;19.022;2024-02-23T09:07:04;3.40;;;2.30;;
27003;SDS011;14546;47.590;19.022;2024-02-23T09:09:30;2.47;;;1.90;;
27003;SDS011;14546;47.590;19.022;2024-02-23T09:11:56;5.30;;;1.92;;
27003;SDS011;14546;47.590;19.022;2024-02-23T09:14:22;3.92;;;1.88;;
27003;SDS011;14546;47.590;19.022;2024-02-23T09:16:47;2.75;;;2.03;;
27003;SDS011;14546;47.590;19.022;2024-02-23T09:19:19;3.45;;;2.05;;
27003;SDS011;14546;47.590;19.022;2024-02-23T09:21:45;7.63;;;2.15;;
27003;SDS011;14546;47.590;19.022;2024-02-23T09:24:11;4.22;;;2.03;;
27003;SDS011;14546;47.590;19.022;2024-02-23T09:26:37;2.83;;;1.67;;
27003;SDS011;14546;47.590;19.022;2024-02-23T09:29:04;2.75;;;1.88;;
27003;SDS011;14546;47.590;19.022;2024-02-23T09:31:30;3.80;;;2.33;;
27003;SDS011;14546;47.590;19.022;2024-02-23T09:33:56;3.97;;;1.75;;
27003;SDS011;14546;47.590;19.022;2024-02-23T09:36:22;2.72;;;1.95;;
27003;SDS011;14546;47.590;19.022;2024-02-23T09:38:49;3.22;;;1.83;;
27003;SDS011;14546;47.590;19.022;2024-02-23T09:41:22;3.92;;;2.00;;
27003;SDS011;14546;47.590;19.022;2024-02-23T09:43:48;4.35;;;2.10;;
27003;SDS011;14546;47.590;19.022;2024-02-23T09:46:18;3.15;;;1.73;;
27003;SDS011;14546;47.590;19.022;2024-02-23T09:48:44;3.08;;;2.10;;
27003;SDS011;14546;47.590;19.022;2024-02-23T09:51:13;3.17;;;1.60;;
27003;SDS011;14546;47.590;19.022;2024-02-23T09:53:40;3.03;;;1.60;;
27003;SDS011;14546;47.590;19.022;2024-02-23T09:56:08;1.52;;;1.20;;
27003;SDS011;14546;47.590;19.022;2024-02-23T09:58:37;2.10;;;1.63;;
27003;SDS011;14546;47.590;19.022;2024-02-23T10:01:05;3.53;;;1.70;;
27003;SDS011;14546;47.590;19.022;2024-02-23T10:03:30;2.20;;;1.55;;
27003;SDS011;14546;47.590;19.022;2024-02-23T10:05:57;3.03;;;1.38;;
27003;SDS011;14546;47.590;19.022;2024-02-23T10:08:23;2.15;;;1.40;;
27003;SDS011;14546;47.590;19.022;2024-02-23T10:10:48;2.23;;;1.47;;
27003;SDS011;14546;47.590;19.022;2024-02-23T10:13:19;2.50;;;1.50;;
27003;SDS011;14546;47.590;19.022;2024-02-23T10:15:49;1.80;;;1.48;;
27003;SDS011;14546;47.590;19.022;2024-02-23T10:18:16;3.00;;;1.10;;
27003;SDS011;14546;47.590;19.022;2024-02-23T10:20:42;1.65;;;1.10;;
27003;SDS011;14546;47.590;19.022;2024-02-23T10:23:08;1.85;;;1.40;;
27003;SDS011;14546;47.590;19.022;2024-02-23T10:25:34;2.92;;;1.20;;
27003;SDS011;14546;47.590;19.022;2024-02-23T10:28:01;2.80;;;1.38;;
27003;SDS011;14546;47.590;19.022;2024-02-23T10:30:27;2.15;;;1.20;;
27003;SDS011;14546;47.590;19.022;2024-02-23T10:32:55;3.35;;;1.70;;
27003;SDS011;14546;47.590;19.022;2024-02-23T10:35:22;2.42;;;1.38;;
27003;SDS011;14546;47.590;19.022;2024-02-23T10:37:48;2.78;;;1.40;;
27003;SDS011;14546;47.590;19.022;2024-02-23T10:40:17;1.45;;;1.30;;
27003;SDS011;14546;47.590;19.022;2024-02-23T10:42:45;2.55;;;1.35;;
27003;SDS011;14546;47.590;19.022;2024-02-23T10:45:17;2.58;;;1.50;;
27003;SDS011;14546;47.590;19.022;2024-02-23T10:47:43;3.42;;;1.48;;
27003;SDS011;14546;47.590;19.022;2024-02-23T10:50:10;2.17;;;1.30;;
27003;SDS011;14546;47.590;19.022;2024-02-23T10:52:42;1.60;;;1.10;;
27003;SDS011;14546;47.590;19.022;2024-02-23T10:55:08;4.43;;;1.63;;
27003;SDS011;14546;47.590;19.022;2024-02-23T10:57:34;1.30;;;1.10;;
27003;SDS011;14546;47.590;19.022;2024-02-23T11:00:01;3.58;;;1.40;;
27003;SDS011;14546;47.590;19.022;2024-02-23T11:02:31;1.50;;;1.17;;
27003;SDS011;14546;47.590;19.022;2024-02-23T11:05:00;3.35;;;1.40;;
27003;SDS011;14546;47.590;19.022;2024-02-23T11:07:26;2.97;;;1.48;;
27003;SDS011;14546;47.590;19.022;2024-02-23T11:09:54;1.98;;;1.10;;
27003;SDS011;14546;47.590;19.022;2024-02-23T11:12:24;2.53;;;1.30;;
27003;SDS011;14546;47.590;19.022;2024-02-23T11:14:51;1.98;;;1.10;;
27003;SDS011;14546;47.590;19.022;2024-02-23T11:17:21;2.45;;;1.40;;
27003;SDS011;14546;47.590;19.022;2024-02-23T11:19:50;2.42;;;1.30;;
27003;SDS011;14546;47.590;19.022;2024-02-23T11:22:23;2.03;;;1.33;;
27003;SDS011;14546;47.590;19.022;2024-02-23T11:24:50;2.90;;;1.40;;
27003;SDS011;14546;47.590;19.022;2024-02-23T11:27:16;5.40;;;1.50;;
27003;SDS011;14546;47.590;19.022;2024-02-23T11:29:45;3.13;;;1.38;;
27003;SDS011;14546;47.590;19.022;2024-02-23T11:32:14;4.10;;;1.70;;
27003;SDS011;14546;47.590;19.022;2024-02-23T11:34:41;2.50;;;1.95;;
27003;SDS011;14546;47.590;19.022;2024-02-23T11:37:09;4.70;;;2.08;;
27003;SDS011;14546;47.590;19.022;2024-02-23T11:39:35;3.97;;;1.90;;
27003;SDS011;14546;47.590;19.022;2024-02-23T11:42:04;4.55;;;2.78;;
27003;SDS011;14546;47.590;19.022;2024-02-23T11:44:30;3.58;;;2.40;;
27003;SDS011;14546;47.590;19.022;2024-02-23T11:46:56;4.22;;;2.45;;
27003;SDS011;14546;47.590;19.022;2024-02-23T11:49:28;5.28;;;2.85;;
27003;SDS011;14546;47.590;19.022;2024-02-23T11:51:54;4.85;;;2.83;;
27003;SDS011;14546;47.590;19.022;2024-02-23T11:54:21;10.80;;;3.00;;
27003;SDS011;14546;47.590;19.022;2024-02-23T11:56:47;4.68;;;3.00;;
27003;SDS011;14546;47.590;19.022;2024-02-23T11:59:14;5.13;;;3.05;;
27003;SDS011;14546;47.590;19.022;2024-02-23T12:01:40;4.95;;;3.38;;
27003;SDS011;14546;47.590;19.022;2024-02-23T12:04:07;6.55;;;3.72;;
27003;SDS011;14546;47.590;19.022;2024-02-23T12:06:33;10.73;;;4.60;;
27003;SDS011;14546;47.590;19.022;2024-02-23T12:08:59;11.57;;;3.55;;
27003;SDS011;14546;47.590;19.022;2024-02-23T12:11:26;8.30;;;3.88;;
27003;SDS011;14546;47.590;19.022;2024-02-23T12:13:52;6.85;;;4.88;;
27003;SDS011;14546;47.590;19.022;2024-02-23T12:16:20;8.95;;;5.07;;
27003;SDS011;14546;47.590;19.022;2024-02-23T12:18:52;8.60;;;4.95;;
27003;SDS011;14546;47.590;19.022;2024-02-23T12:21:19;7.53;;;4.72;;
27003;SDS011;14546;47.590;19.022;2024-02-23T12:23:45;8.95;;;5.53;;
27003;SDS011;14546;47.590;19.022;2024-02-23T12:26:15;7.03;;;5.38;;
27003;SDS011;14546;47.590;19.022;2024-02-23T12:28:41;8.63;;;5.32;;
27003;SDS011;14546;47.590;19.022;2024-02-23T12:31:07;8.32;;;5.65;;
27003;SDS011;14546;47.590;19.022;2024-02-23T12:33:37;8.20;;;4.93;;
27003;SDS011;14546;47.590;19.022;2024-02-23T12:36:07;6.63;;;4.53;;
27003;SDS011;14546;47.590;19.022;2024-02-23T12:38:33;10.25;;;4.47;;
27003;SDS011;14546;47.590;19.022;2024-02-23T12:41:00;9.43;;;4.88;;
27003;SDS011;14546;47.590;19.022;2024-02-23T12:43:26;9.40;;;4.97;;
27003;SDS011;14546;47.590;19.022;2024-02-23T12:45:55;7.60;;;4.72;;
27003;SDS011;14546;47.590;19.022;2024-02-23T12:48:21;12.73;;;5.38;;
27003;SDS011;14546;47.590;19.022;2024-02-23T12:50:48;7.95;;;5.32;;
27003;SDS011;14546;47.590;19.022;2024-02-23T12:56:08;7.53;;;5.05;;
27003;SDS011;14546;47.590;19.022;2024-02-23T12:58:41;8.43;;;5.10;;
27003;SDS011;14546;47.590;19.022;2024-02-23T13:01:08;9.60;;;4.45;;
27003;SDS011;14546;47.590;19.022;2024-02-23T13:03:35;7.13;;;4.75;;
27003;SDS011;14546;47.590;19.022;2024-02-23T13:06:03;9.05;;;4.30;;
27003;SDS011;14546;47.590;19.022;2024-02-23T13:08:30;6.53;;;4.50;;
27003;SDS011;14546;47.590;19.022;2024-02-23T13:10:56;9.38;;;4.32;;
27003;SDS011;14546;47.590;19.022;2024-02-23T13:13:22;7.35;;;4.65;;
27003;SDS011;14546;47.590;19.022;2024-02-23T13:15:49;6.15;;;4.20;;
27003;SDS011;14546;47.590;19.022;2024-02-23T13:18:16;8.15;;;4.25;;
27003;SDS011;14546;47.590;19.022;2024-02-23T13:20:42;5.10;;;4.05;;
27003;SDS011;14546;47.590;19.022;2024-02-23T13:23:08;8.57;;;4.70;;
27003;SDS011;14546;47.590;19.022;2024-02-23T13:25:35;14.13;;;4.72;;
27003;SDS011;14546;47.590;19.022;2024-02-23T13:28:01;8.23;;;4.93;;
27003;SDS011;14546;47.590;19.022;2024-02-23T13:30:27;8.32;;;4.43;;
27003;SDS011;14546;47.590;19.022;2024-02-23T13:32:53;7.05;;;4.90;;
27003;SDS011;14546;47.590;19.022;2024-02-23T13:35:19;7.65;;;5.00;;
27003;SDS011;14546;47.590;19.022;2024-02-23T13:37:45;9.00;;;5.38;;
27003;SDS011;14546;47.590;19.022;2024-02-23T13:40:11;9.45;;;5.32;;
27003;SDS011;14546;47.590;19.022;2024-02-23T13:42:39;9.73;;;5.25;;
27003;SDS011;14546;47.590;19.022;2024-02-23T13:45:06;10.23;;;5.30;;
27003;SDS011;14546;47.590;19.022;2024-02-23T13:47:32;9.02;;;5.13;;
27003;SDS011;14546;47.590;19.022;2024-02-23T13:49:59;8.38;;;5.30;;
27003;SDS011;14546;47.590;19.022;2024-02-23T13:52:25;10.27;;;6.00;;
27003;SDS011;14546;47.590;19.022;2024-02-23T13:54:50;11.90;;;6.70;;
27003;SDS011;14546;47.590;19.022;2024-02-23T13:57:16;10.88;;;6.90;;
27003;SDS011;14546;47.590;19.022;2024-02-23T13:59:42;12.05;;;7.15;;
27003;SDS011;14546;47.590;19.022;2024-02-23T14:02:07;11.75;;;7.13;;
27003;SDS011;14546;47.590;19.022;2024-02-23T14:04:33;14.23;;;8.02;;
27003;SDS011;14546;47.590;19.022;2024-02-23T14:07:00;18.92;;;7.60;;
27003;SDS011;14546;47.590;19.022;2024-02-23T14:09:26;14.25;;;7.85;;
27003;SDS011;14546;47.590;19.022;2024-02-23T14:11:51;11.23;;;8.20;;
27003;SDS011;14546;47.590;19.022;2024-02-23T14:14:17;13.43;;;8.57;;
27003;SDS011;14546;47.590;19.022;2024-02-23T14:16:45;14.68;;;9.00;;
27003;SDS011;14546;47.590;19.022;2024-02-23T14:19:10;12.32;;;8.95;;
27003;SDS011;14546;47.590;19.022;2024-02-23T14:21:36;15.10;;;9.43;;
27003;SDS011;14546;47.590;19.022;2024-02-23T14:24:02;18.50;;;10.18;;
27003;SDS011;14546;47.590;19.022;2024-02-23T14:26:29;13.80;;;9.35;;
27003;SDS011;14546;47.590;19.022;2024-02-23T14:28:54;14.75;;;10.10;;
27003;SDS011;14546;47.590;19.022;2024-02-23T14:31:20;16.10;;;10.10;;